Needham, Indiana
Current Conditions -  °F | °C
As of 4:53 AM on Tuesday 21 Oct 2014 (Local Time) from KGEZ Reporting Station
Broken Clouds Broken Clouds  
Wind Chill: 45°   Ceiling: 5500
Heat Index: 49°   Visibility: 10mi
Dew Point: 45°   Wind: 8mph
Humidity: 86%   Direction: 330°NNW
Pressure: 29.97"   Gusts: NA
Location:  39.53°N, 85.97°W
Report Text: KGEZ 210853Z AUTO 33007KT 10SM BKN055 09/07 A2997 RMK AO2 SLP147 T00940072 53007
Loading
Personal Weather Stations






























Interactive Weather Map
Tropical Storm Tracking
New forecast layout! Learn more

10-Day Weather Forecast

Advertisements
Track Severe Weather on mobile